Strona główna
METAR-TAF:

METAR-TAF

Lotnisko :

Port lotniczy Langkawi

Langkawi, Malezja

Szerokość geograficzna: 06-20N, Długość geograficzna: 099-44E, wysokość: 8 m

Aktualna obserwacja pogody

Raport powstał 45 minut temu, godzina 03:00 UTC
Wiatr 7 kt od wschodnio-północny wschód, zmienny między północno-północny zachód i wschodnio-południowy wschód
Temperatura 31°C
Wilgotność 63%
Ciśnienie 1012 hPa
Widzialność 10 km lub więcej
Mało chmury na wysokości 2000 ft

METAR: WMKL 100300Z 06007KT 340V120 9999 FEW020 31/23 Q1012

czas: 11:45 (03:45 UTC)

Prognoza

Raport powstał 4 godziny i 45 minut temu, godzina 23:00 UTC
Prognoza ważna od 10 godzina 00 UTC do 11 godzina 00 UTC
Wiatr 9 kt od północny wschód
Widzialność 10 km lub więcej
Mało chmury na wysokości 2000 ft

TAF: WMKL 092300Z 1000/1100 05009KT 9999 FEW020

Obserwacja i prognoza pogody dla ponad 4000 lotnisk (raport METAR i TAF).

Dostępne stacje oznaczono żółtymi i czerwonymi punktami na mapie.

Najedź kursorem aby zobaczyć nazwę stacji.

Kliknij aby zobaczyć obserwacje i prognozy pogody.

Aby zmienić mapę: kliknij na zielony przycisk z czarnym krzyżykiem, aby powiększyć; na zielony przycisk z myślnikiem, aby pomniejszyć; na zielone strzałki, aby przejść do map sąsiednich.


METAR-TAF: